Time;durP1;ratioP1;P1;durP2;ratioP2;P2;SDS_P1;SDS_P2;PMS_P1;PMS_P2;Temp;Humidity;BMP_temperature;BMP_pressure;BME280_temperature;BME280_humidity;BME280_pressure;Samples;Min_cycle;Max_cycle;Signal;HPM_P1;HPM_P2
2021/11/10 00:02:04;;;;;;;28.63;13.23;;;;;;;;;;4401884;32;20313;-54
2021/11/10 00:04:29;;;;;;;21.53;10.47;;;;;;;;;;4401789;32;20749;-55
2021/11/10 00:06:55;;;;;;;18.47;9.17;;;;;;;;;;4402762;32;20661;-54
2021/11/10 00:09:20;;;;;;;21.47;8.33;;;;;;;;;;4402946;32;20300;-54
2021/11/10 00:11:46;;;;;;;24.77;9.17;;;;;;;;;;4403008;32;20308;-55
2021/11/10 00:14:12;;;;;;;17.87;9.50;;;;;;;;;;4402883;32;20348;-54
2021/11/10 00:16:38;;;;;;;17.17;8.50;;;;;;;;;;4402841;32;20265;-55
2021/11/10 00:19:04;;;;;;;20.43;9.30;;;;;;;;;;4401406;32;20415;-54
2021/11/10 00:21:30;;;;;;;16.50;9.93;;;;;;;;;;4402520;32;20305;-54
2021/11/10 00:23:56;;;;;;;18.37;9.53;;;;;;;;;;4401916;32;20226;-54
2021/11/10 00:26:22;;;;;;;26.73;12.70;;;;;;;;;;4387661;32;20260;-54
2021/11/10 00:28:48;;;;;;;29.83;12.77;;;;;;;;;;4387596;32;20264;-55
2021/11/10 00:31:15;;;;;;;14.20;8.27;;;;;;;;;;4397377;32;20856;-56
2021/11/10 00:33:40;;;;;;;21.57;11.60;;;;;;;;;;4402190;32;20251;-55
2021/11/10 00:36:07;;;;;;;22.90;11.27;;;;;;;;;;4402550;32;20609;-55
2021/11/10 00:38:32;;;;;;;19.47;8.83;;;;;;;;;;4402494;32;20209;-54
2021/11/10 00:40:58;;;;;;;16.00;9.40;;;;;;;;;;4402181;32;20270;-54
2021/11/10 00:43:23;;;;;;;23.57;11.57;;;;;;;;;;4402424;32;20319;-55
2021/11/10 00:45:50;;;;;;;15.10;9.43;;;;;;;;;;4403127;32;20326;-54
2021/11/10 00:48:16;;;;;;;14.63;8.30;;;;;;;;;;4402212;32;20214;-54
2021/11/10 00:50:42;;;;;;;14.50;9.53;;;;;;;;;;4402039;32;20276;-55
2021/11/10 00:53:08;;;;;;;20.03;9.93;;;;;;;;;;4402117;32;20336;-54
2021/11/10 00:55:35;;;;;;;14.73;9.30;;;;;;;;;;4402530;32;20612;-55
2021/11/10 00:58:02;;;;;;;12.63;6.20;;;;;;;;;;4402524;32;20253;-55
2021/11/10 01:00:28;;;;;;;9.77;6.53;;;;;;;;;;4402213;32;20565;-55
2021/11/10 01:02:54;;;;;;;7.90;5.83;;;;;;;;;;4402380;32;20291;-54
2021/11/10 01:05:20;;;;;;;8.10;6.13;;;;;;;;;;4402216;32;20371;-55
2021/11/10 01:07:45;;;;;;;9.47;6.27;;;;;;;;;;4402380;32;20690;-54
2021/11/10 01:10:12;;;;;;;10.97;5.93;;;;;;;;;;4402145;32;20701;-54
2021/11/10 01:12:38;;;;;;;11.53;5.50;;;;;;;;;;4400839;32;20253;-54
2021/11/10 01:15:05;;;;;;;8.67;5.57;;;;;;;;;;4402433;32;20314;-54
2021/11/10 01:17:30;;;;;;;12.40;7.33;;;;;;;;;;4398097;32;20265;-54
2021/11/10 01:19:56;;;;;;;12.17;6.63;;;;;;;;;;4387535;32;20296;-54
2021/11/10 01:22:21;;;;;;;19.17;9.63;;;;;;;;;;4401794;32;20237;-54
2021/11/10 01:24:47;;;;;;;11.97;7.27;;;;;;;;;;4401599;32;20315;-55
2021/11/10 01:27:14;;;;;;;19.87;8.03;;;;;;;;;;4401981;32;20690;-54
2021/11/10 01:29:40;;;;;;;11.87;6.53;;;;;;;;;;4401979;32;20593;-55
2021/11/10 01:32:06;;;;;;;11.67;7.00;;;;;;;;;;4401637;32;20305;-55
2021/11/10 01:34:32;;;;;;;11.13;6.53;;;;;;;;;;4401780;32;20314;-55
2021/11/10 01:36:57;;;;;;;17.67;6.97;;;;;;;;;;4402055;32;20619;-54
2021/11/10 01:39:22;;;;;;;12.60;6.77;;;;;;;;;;4402119;32;20362;-55
2021/11/10 01:41:51;;;;;;;9.83;5.07;;;;;;;;;;4401777;32;20264;-55
2021/11/10 01:44:22;;;;;;;9.87;5.37;;;;;;;;;;4401861;32;20571;-55
2021/11/10 01:46:48;;;;;;;7.33;4.37;;;;;;;;;;4399978;32;20782;-54
2021/11/10 01:49:14;;;;;;;6.30;4.33;;;;;;;;;;4401726;32;20205;-55
2021/11/10 01:51:51;;;;;;;7.63;4.17;;;;;;;;;;4401822;32;20233;-55
2021/11/10 01:54:19;;;;;;;10.50;4.77;;;;;;;;;;4401827;32;20291;-54
2021/11/10 01:56:45;;;;;;;9.13;4.23;;;;;;;;;;4401779;32;20645;-55
2021/11/10 01:59:26;;;;;;;5.73;4.00;;;;;;;;;;4400640;32;20722;-56
2021/11/10 02:01:51;;;;;;;4.00;3.03;;;;;;;;;;4401935;32;20787;-55
2021/11/10 02:04:17;;;;;;;13.13;7.47;;;;;;;;;;4401568;32;20300;-57
2021/11/10 02:06:42;;;;;;;10.80;6.93;;;;;;;;;;4401518;32;20488;-55
2021/11/10 02:09:08;;;;;;;30.07;19.20;;;;;;;;;;4401770;32;20311;-55
2021/11/10 02:11:34;;;;;;;26.13;16.47;;;;;;;;;;4401669;32;20372;-56
2021/11/10 02:14:01;;;;;;;26.40;16.30;;;;;;;;;;4401475;32;20231;-56
2021/11/10 02:16:27;;;;;;;27.53;14.60;;;;;;;;;;4399217;32;20270;-55
2021/11/10 02:18:54;;;;;;;19.77;11.23;;;;;;;;;;4386787;32;20202;-56
2021/11/10 02:21:21;;;;;;;13.77;7.97;;;;;;;;;;4386160;32;20261;-55
2021/11/10 02:23:46;;;;;;;10.60;6.93;;;;;;;;;;4388593;32;20390;-55
2021/11/10 02:26:22;;;;;;;13.23;7.13;;;;;;;;;;4400834;32;20253;-54
2021/11/10 02:28:49;;;;;;;10.00;6.07;;;;;;;;;;4401452;32;20264;-55
2021/11/10 02:31:15;;;;;;;16.83;6.33;;;;;;;;;;4401047;32;20245;-54
2021/11/10 02:33:40;;;;;;;7.20;5.47;;;;;;;;;;4401419;32;20381;-56
2021/11/10 02:36:06;;;;;;;10.73;6.40;;;;;;;;;;4401425;32;20301;-55
2021/11/10 02:38:33;;;;;;;9.27;6.03;;;;;;;;;;4401539;32;20742;-56
2021/11/10 02:41:01;;;;;;;15.83;8.03;;;;;;;;;;4401454;32;20301;-55
2021/11/10 02:43:28;;;;;;;12.47;6.73;;;;;;;;;;4397497;32;20384;-56
2021/11/10 02:45:55;;;;;;;17.73;8.23;;;;;;;;;;4386398;32;20189;-55
2021/11/10 02:48:21;;;;;;;7.37;5.63;;;;;;;;;;4386264;32;20218;-55
2021/11/10 02:50:47;;;;;;;8.30;5.90;;;;;;;;;;4384737;32;20387;-56
2021/11/10 02:53:13;;;;;;;12.00;7.13;;;;;;;;;;4386212;32;20263;-55
2021/11/10 02:55:38;;;;;;;13.73;7.30;;;;;;;;;;4386296;32;20288;-55
2021/11/10 02:58:04;;;;;;;12.97;8.23;;;;;;;;;;4386296;32;20225;-55
2021/11/10 03:00:30;;;;;;;17.50;7.13;;;;;;;;;;4388921;32;20323;-56
2021/11/10 03:02:57;;;;;;;11.90;7.43;;;;;;;;;;4389038;32;20241;-55
2021/11/10 03:05:23;;;;;;;11.60;7.13;;;;;;;;;;4388482;32;20288;-55
2021/11/10 03:07:49;;;;;;;15.90;8.37;;;;;;;;;;4388869;32;20262;-55
2021/11/10 03:10:15;;;;;;;14.00;7.37;;;;;;;;;;4397429;32;20269;-57
2021/11/10 03:12:41;;;;;;;18.63;7.40;;;;;;;;;;4403833;32;20247;-55
2021/11/10 03:15:08;;;;;;;19.13;8.20;;;;;;;;;;4403832;32;20723;-55
2021/11/10 03:17:34;;;;;;;26.87;10.27;;;;;;;;;;4403724;32;20287;-54
2021/11/10 03:19:59;;;;;;;25.27;9.80;;;;;;;;;;4403168;32;20293;-56
2021/11/10 03:22:25;;;;;;;20.17;10.07;;;;;;;;;;4403417;32;20703;-54
2021/11/10 03:24:50;;;;;;;28.77;15.10;;;;;;;;;;4402039;32;20280;-54
2021/11/10 03:27:16;;;;;;;32.83;17.17;;;;;;;;;;4403444;32;20391;-55
2021/11/10 03:29:43;;;;;;;34.67;18.30;;;;;;;;;;4403812;32;20307;-55
2021/11/10 03:32:10;;;;;;;33.27;15.33;;;;;;;;;;4403105;32;20342;-56
2021/11/10 03:34:36;;;;;;;47.53;17.53;;;;;;;;;;4403293;32;20214;-54
2021/11/10 03:37:03;;;;;;;39.53;14.50;;;;;;;;;;4403526;32;20632;-56
2021/11/10 03:39:29;;;;;;;30.47;13.67;;;;;;;;;;4403444;32;20214;-55
2021/11/10 03:41:55;;;;;;;23.00;12.93;;;;;;;;;;4403225;32;20352;-55
2021/11/10 03:44:21;;;;;;;38.27;15.67;;;;;;;;;;4403513;32;20348;-54
2021/11/10 03:46:46;;;;;;;35.00;14.73;;;;;;;;;;4403428;32;20247;-55
2021/11/10 03:49:13;;;;;;;39.83;15.43;;;;;;;;;;4403382;32;20265;-54
2021/11/10 03:51:39;;;;;;;40.70;16.83;;;;;;;;;;4403024;32;20569;-55
2021/11/10 03:54:04;;;;;;;39.20;15.10;;;;;;;;;;4402998;32;20300;-57
2021/11/10 03:56:30;;;;;;;33.43;14.40;;;;;;;;;;4403168;32;20257;-56
2021/11/10 03:58:56;;;;;;;24.20;11.23;;;;;;;;;;4403690;32;20272;-55
2021/11/10 04:01:21;;;;;;;24.57;11.73;;;;;;;;;;4402950;32;20316;-55
2021/11/10 04:03:47;;;;;;;22.03;10.93;;;;;;;;;;4403216;32;20731;-55
2021/11/10 04:06:12;;;;;;;14.27;9.03;;;;;;;;;;4413984;32;20260;-55
2021/11/10 04:08:38;;;;;;;15.73;8.50;;;;;;;;;;4402280;32;20291;-56
2021/11/10 04:11:04;;;;;;;18.97;9.17;;;;;;;;;;4403089;32;20217;-55
2021/11/10 04:13:31;;;;;;;16.87;8.57;;;;;;;;;;4403438;32;20739;-56
2021/11/10 04:15:57;;;;;;;11.60;7.30;;;;;;;;;;4414819;32;20343;-55
2021/11/10 04:18:23;;;;;;;10.60;7.20;;;;;;;;;;4403005;32;20318;-55
2021/11/10 04:20:49;;;;;;;20.03;9.43;;;;;;;;;;4402728;32;20318;-55
2021/11/10 04:23:15;;;;;;;15.37;9.00;;;;;;;;;;4402575;32;20272;-56
2021/11/10 04:25:40;;;;;;;14.87;9.00;;;;;;;;;;4391367;32;20273;-55
2021/11/10 04:28:06;;;;;;;16.03;8.97;;;;;;;;;;4387362;32;20230;-55
2021/11/10 04:30:32;;;;;;;14.67;7.57;;;;;;;;;;4387397;32;20319;-55
2021/11/10 04:32:58;;;;;;;19.50;8.60;;;;;;;;;;4400675;32;20238;-54
2021/11/10 04:35:24;;;;;;;14.77;7.97;;;;;;;;;;4402604;32;20285;-55
2021/11/10 04:37:49;;;;;;;23.87;11.53;;;;;;;;;;4402986;32;20303;-55
2021/11/10 04:40:15;;;;;;;31.53;14.80;;;;;;;;;;4402614;32;20284;-55
2021/11/10 04:42:41;;;;;;;27.63;12.33;;;;;;;;;;4401266;32;20252;-54
2021/11/10 04:45:10;;;;;;;33.77;16.93;;;;;;;;;;4402762;32;20349;-55
2021/11/10 04:47:37;;;;;;;43.93;20.83;;;;;;;;;;4402409;32;20221;-54
2021/11/10 04:50:06;;;;;;;67.60;28.17;;;;;;;;;;4402474;32;20442;-55
2021/11/10 04:52:32;;;;;;;73.90;34.47;;;;;;;;;;4402429;32;20289;-54
2021/11/10 04:54:58;;;;;;;68.27;29.27;;;;;;;;;;4402235;32;20198;-55
2021/11/10 04:57:23;;;;;;;68.93;29.70;;;;;;;;;;4402316;32;20221;-54
2021/11/10 04:59:49;;;;;;;70.17;28.77;;;;;;;;;;4413691;32;20414;-55
2021/11/10 05:04:41;;;;;;;65.47;29.90;;;;;;;;;;4401960;32;20315;-54
2021/11/10 05:07:10;;;;;;;65.60;32.97;;;;;;;;;;4400658;32;20390;-55
2021/11/10 05:09:37;;;;;;;64.63;32.73;;;;;;;;;;4402082;32;20196;-55
2021/11/10 05:12:03;;;;;;;39.57;19.30;;;;;;;;;;4400742;32;20253;-55
2021/11/10 05:14:29;;;;;;;32.30;16.67;;;;;;;;;;4401871;32;20296;-55
2021/11/10 05:16:54;;;;;;;35.73;16.87;;;;;;;;;;4400603;32;20689;-56
2021/11/10 05:19:19;;;;;;;36.87;18.20;;;;;;;;;;4400271;32;20802;-54
2021/11/10 05:21:45;;;;;;;35.07;19.17;;;;;;;;;;4401970;32;20233;-54
2021/11/10 05:24:11;;;;;;;36.30;18.83;;;;;;;;;;4401450;32;20353;-56
2021/11/10 05:26:38;;;;;;;49.50;24.37;;;;;;;;;;4402027;32;20323;-56
2021/11/10 05:29:04;;;;;;;41.37;22.83;;;;;;;;;;4402331;32;20271;-56
2021/11/10 05:31:30;;;;;;;49.03;22.70;;;;;;;;;;4400536;32;20368;-56
2021/11/10 05:33:55;;;;;;;46.30;24.33;;;;;;;;;;4401920;32;20293;-55
2021/11/10 05:36:21;;;;;;;50.53;25.77;;;;;;;;;;4401729;32;20259;-54
2021/11/10 05:38:47;;;;;;;46.47;23.47;;;;;;;;;;4402042;32;20296;-54
2021/11/10 05:41:12;;;;;;;40.30;21.37;;;;;;;;;;4401959;32;20245;-56
2021/11/10 05:43:38;;;;;;;44.17;22.03;;;;;;;;;;4400620;32;20312;-56
2021/11/10 05:46:04;;;;;;;40.43;22.13;;;;;;;;;;4401820;32;20661;-56
2021/11/10 05:48:30;;;;;;;46.50;23.03;;;;;;;;;;4413088;32;20334;-56
2021/11/10 05:50:56;;;;;;;47.37;26.47;;;;;;;;;;4401753;32;20326;-56
2021/11/10 05:53:22;;;;;;;53.67;28.07;;;;;;;;;;4402160;32;20285;-55
2021/11/10 05:55:52;;;;;;;86.73;42.73;;;;;;;;;;4402213;32;20341;-54
2021/11/10 05:58:18;;;;;;;42.13;23.07;;;;;;;;;;4401689;32;20224;-55
2021/11/10 06:00:43;;;;;;;49.23;26.33;;;;;;;;;;4401843;32;20299;-54
2021/11/10 06:03:09;;;;;;;42.50;25.03;;;;;;;;;;4397442;32;20270;-54
2021/11/10 06:05:34;;;;;;;51.13;29.73;;;;;;;;;;4386383;32;20318;-55
2021/11/10 06:08:00;;;;;;;43.80;25.83;;;;;;;;;;4386340;32;20538;-55
2021/11/10 06:10:25;;;;;;;36.40;23.77;;;;;;;;;;4396062;32;20333;-55
2021/11/10 06:12:51;;;;;;;41.00;24.33;;;;;;;;;;4401299;32;20360;-55
2021/11/10 06:15:17;;;;;;;48.70;26.03;;;;;;;;;;4401119;32;20342;-54
2021/11/10 06:17:43;;;;;;;54.27;24.60;;;;;;;;;;4401336;32;20255;-54
2021/11/10 06:20:10;;;;;;;42.93;21.10;;;;;;;;;;4400279;32;20276;-55
2021/11/10 06:22:36;;;;;;;37.90;22.90;;;;;;;;;;4401407;32;20665;-55
2021/11/10 06:25:03;;;;;;;58.73;29.87;;;;;;;;;;4394071;32;20315;-55
2021/11/10 06:27:29;;;;;;;48.37;30.20;;;;;;;;;;4387121;32;20497;-55
2021/11/10 06:29:54;;;;;;;56.20;33.20;;;;;;;;;;4401590;32;20285;-56
2021/11/10 06:32:20;;;;;;;54.70;31.87;;;;;;;;;;4401879;32;20332;-55
2021/11/10 06:34:46;;;;;;;67.73;36.13;;;;;;;;;;4404381;32;20571;-56
2021/11/10 06:37:11;;;;;;;61.00;33.17;;;;;;;;;;4404203;32;20259;-54
2021/11/10 06:39:37;;;;;;;58.70;33.40;;;;;;;;;;4404316;32;20301;-55
2021/11/10 06:42:03;;;;;;;48.77;28.67;;;;;;;;;;4404094;32;20229;-54
2021/11/10 06:44:29;;;;;;;59.50;30.93;;;;;;;;;;4404188;32;20274;-53
2021/11/10 06:46:59;;;;;;;64.47;36.53;;;;;;;;;;4398915;32;20249;-55
2021/11/10 06:49:24;;;;;;;65.77;35.83;;;;;;;;;;4387626;32;20269;-54
2021/11/10 06:51:50;;;;;;;56.77;32.93;;;;;;;;;;4385533;32;20258;-54
2021/11/10 06:54:15;;;;;;;60.80;34.87;;;;;;;;;;4389480;32;20316;-54
2021/11/10 06:56:41;;;;;;;78.97;39.43;;;;;;;;;;4401897;32;20291;-55
2021/11/10 06:59:07;;;;;;;83.47;49.37;;;;;;;;;;4401855;32;20308;-55
2021/11/10 07:01:33;;;;;;;96.37;51.80;;;;;;;;;;4400580;32;20694;-54
2021/11/10 07:03:58;;;;;;;84.13;47.30;;;;;;;;;;4402076;32;20777;-53
2021/11/10 07:06:24;;;;;;;78.33;42.53;;;;;;;;;;4403725;32;20677;-54
2021/11/10 07:08:49;;;;;;;97.57;49.77;;;;;;;;;;4404067;32;20650;-54
2021/11/10 07:11:14;;;;;;;96.40;56.27;;;;;;;;;;4403461;32;20249;-54
2021/11/10 07:13:40;;;;;;;99.70;56.87;;;;;;;;;;4404118;32;20265;-55
2021/11/10 07:16:06;;;;;;;98.60;55.27;;;;;;;;;;4403433;32;20321;-54
2021/11/10 07:18:31;;;;;;;94.63;55.83;;;;;;;;;;4402764;32;20327;-55
2021/11/10 07:20:57;;;;;;;105.37;59.37;;;;;;;;;;4403499;32;20396;-54
2021/11/10 07:23:22;;;;;;;88.87;50.97;;;;;;;;;;4403615;32;20319;-54
2021/11/10 07:25:48;;;;;;;82.87;40.43;;;;;;;;;;4402975;32;20693;-55
2021/11/10 07:28:14;;;;;;;50.73;26.83;;;;;;;;;;4403245;32;20364;-54
2021/11/10 07:30:40;;;;;;;47.30;30.20;;;;;;;;;;4403699;32;20309;-55
2021/11/10 07:33:07;;;;;;;50.57;29.80;;;;;;;;;;4402851;32;20233;-53
2021/11/10 07:35:33;;;;;;;45.80;28.73;;;;;;;;;;4403926;32;20312;-53
2021/11/10 07:37:59;;;;;;;51.30;29.53;;;;;;;;;;4394997;32;20217;-55
2021/11/10 07:40:25;;;;;;;45.27;24.57;;;;;;;;;;4393892;32;20300;-56
2021/11/10 07:42:51;;;;;;;50.70;24.77;;;;;;;;;;4403577;32;20229;-54
2021/11/10 07:45:23;;;;;;;45.97;24.83;;;;;;;;;;4401990;32;20362;-55
2021/11/10 07:47:52;;;;;;;35.30;21.57;;;;;;;;;;4401694;32;20566;-55
2021/11/10 07:50:20;;;;;;;43.00;21.60;;;;;;;;;;4402471;32;20261;-53
2021/11/10 07:52:47;;;;;;;30.10;19.90;;;;;;;;;;4402571;32;20221;-54
2021/11/10 07:55:13;;;;;;;43.87;23.33;;;;;;;;;;4402953;32;20310;-55
2021/11/10 07:57:39;;;;;;;36.03;19.63;;;;;;;;;;4403049;32;20283;-53
2021/11/10 08:00:08;;;;;;;45.03;20.33;;;;;;;;;;4402650;32;20276;-55
2021/11/10 08:02:33;;;;;;;31.23;18.73;;;;;;;;;;4398721;32;20681;-54
2021/11/10 08:04:59;;;;;;;30.23;19.57;;;;;;;;;;4388146;32;20285;-54
2021/11/10 08:07:24;;;;;;;29.93;16.43;;;;;;;;;;4387857;32;20297;-54
2021/11/10 08:09:50;;;;;;;28.70;15.20;;;;;;;;;;4387626;32;20349;-54
2021/11/10 08:12:16;;;;;;;31.77;17.13;;;;;;;;;;4387217;32;20313;-54
2021/11/10 08:14:41;;;;;;;21.70;15.00;;;;;;;;;;4387776;32;20307;-55
2021/11/10 08:17:07;;;;;;;24.30;13.40;;;;;;;;;;4386833;32;20355;-54
2021/11/10 08:19:32;;;;;;;22.60;13.63;;;;;;;;;;4387633;32;20348;-54
2021/11/10 08:21:57;;;;;;;24.30;13.60;;;;;;;;;;4400250;32;20376;-54
2021/11/10 08:24:26;;;;;;;16.77;11.07;;;;;;;;;;4400566;32;20312;-55
2021/11/10 08:26:51;;;;;;;19.50;14.07;;;;;;;;;;4400676;32;20241;-55
2021/11/10 08:29:17;;;;;;;25.07;13.03;;;;;;;;;;4400703;32;20391;-54
2021/11/10 08:31:42;;;;;;;22.40;12.03;;;;;;;;;;4399131;32;20696;-55
2021/11/10 08:34:08;;;;;;;17.53;11.67;;;;;;;;;;4399836;32;20641;-55
2021/11/10 08:36:34;;;;;;;24.80;11.73;;;;;;;;;;4399649;32;20392;-55
2021/11/10 08:38:59;;;;;;;22.47;12.73;;;;;;;;;;4400443;32;20284;-54
2021/11/10 08:41:25;;;;;;;29.30;13.93;;;;;;;;;;4402150;32;20593;-54
2021/11/10 08:43:51;;;;;;;15.37;9.97;;;;;;;;;;4401663;32;20295;-57
2021/11/10 08:46:18;;;;;;;13.17;8.03;;;;;;;;;;4402107;32;20578;-54
2021/11/10 08:48:44;;;;;;;14.40;8.30;;;;;;;;;;4402500;32;20202;-54
2021/11/10 08:51:09;;;;;;;9.00;7.40;;;;;;;;;;4402357;32;20399;-54
2021/11/10 08:53:35;;;;;;;11.27;8.57;;;;;;;;;;4402582;32;20733;-56
2021/11/10 08:56:03;;;;;;;10.33;5.87;;;;;;;;;;4402303;32;20602;-55
2021/11/10 08:58:29;;;;;;;8.97;4.47;;;;;;;;;;4402492;32;20217;-54
2021/11/10 09:00:55;;;;;;;7.73;5.60;;;;;;;;;;4402309;32;20303;-55
2021/11/10 09:03:22;;;;;;;8.53;5.87;;;;;;;;;;4401929;32;20661;-55
2021/11/10 09:05:52;;;;;;;9.20;6.23;;;;;;;;;;4402628;32;20268;-54
2021/11/10 09:08:35;;;;;;;9.37;5.70;;;;;;;;;;4402260;32;20260;-55
2021/11/10 09:11:01;;;;;;;8.47;5.07;;;;;;;;;;4401031;32;20265;-55
2021/11/10 09:13:27;;;;;;;7.90;4.47;;;;;;;;;;4401188;32;20793;-55
2021/11/10 09:15:55;;;;;;;4.30;3.80;;;;;;;;;;4402175;32;20271;-55
2021/11/10 09:18:22;;;;;;;7.27;4.40;;;;;;;;;;4398180;32;20238;-55
2021/11/10 09:20:49;;;;;;;7.43;5.17;;;;;;;;;;4387398;32;20610;-55
2021/11/10 09:23:16;;;;;;;6.90;5.07;;;;;;;;;;4385430;32;20423;-55
2021/11/10 09:25:43;;;;;;;7.27;5.13;;;;;;;;;;4400643;32;20245;-55
2021/11/10 09:28:11;;;;;;;7.43;5.17;;;;;;;;;;4401801;32;20613;-54
2021/11/10 09:30:41;;;;;;;11.73;4.30;;;;;;;;;;4402015;32;20305;-56
2021/11/10 09:33:09;;;;;;;6.77;4.50;;;;;;;;;;4401827;32;20272;-55
2021/11/10 09:35:36;;;;;;;9.50;6.07;;;;;;;;;;4402010;32;20271;-55
2021/11/10 09:38:03;;;;;;;7.93;4.97;;;;;;;;;;4402146;32;20253;-55
2021/11/10 09:40:33;;;;;;;6.10;4.80;;;;;;;;;;4402040;32;20322;-54
2021/11/10 09:43:00;;;;;;;7.77;4.00;;;;;;;;;;4402065;32;20665;-54
2021/11/10 09:45:27;;;;;;;7.20;4.40;;;;;;;;;;4401761;32;20205;-55
2021/11/10 09:47:53;;;;;;;4.80;2.97;;;;;;;;;;4401443;32;20221;-55
2021/11/10 09:50:23;;;;;;;6.27;3.00;;;;;;;;;;4402527;32;20371;-55
2021/11/10 09:52:50;;;;;;;5.60;3.53;;;;;;;;;;4402565;32;20228;-55
2021/11/10 09:55:18;;;;;;;4.17;3.20;;;;;;;;;;4400758;32;20304;-55
2021/11/10 09:57:46;;;;;;;5.20;3.87;;;;;;;;;;4402073;32;20217;-56
2021/11/10 10:00:16;;;;;;;5.77;3.57;;;;;;;;;;4401883;32;20608;-55
2021/11/10 10:02:48;;;;;;;4.47;3.23;;;;;;;;;;4401976;32;20256;-54
2021/11/10 10:05:19;;;;;;;6.90;3.90;;;;;;;;;;4401326;32;20224;-54
2021/11/10 10:07:49;;;;;;;6.87;4.37;;;;;;;;;;4402341;32;20256;-55
2021/11/10 10:10:14;;;;;;;7.40;4.13;;;;;;;;;;4404464;32;20273;-54
2021/11/10 10:12:41;;;;;;;8.40;4.47;;;;;;;;;;4405010;32;20285;-54
2021/11/10 10:15:09;;;;;;;5.13;4.07;;;;;;;;;;4404690;32;20363;-55
2021/11/10 10:17:38;;;;;;;5.20;4.33;;;;;;;;;;4404604;32;20300;-56
2021/11/10 10:20:22;;;;;;;5.17;3.50;;;;;;;;;;4404875;32;20206;-56
2021/11/10 10:22:49;;;;;;;7.43;3.90;;;;;;;;;;4404944;32;20704;-55
2021/11/10 10:25:15;;;;;;;11.27;3.53;;;;;;;;;;4403966;32;20251;-56
2021/11/10 10:27:56;;;;;;;10.60;5.67;;;;;;;;;;4404926;32;20313;-54
2021/11/10 10:30:37;;;;;;;14.17;6.07;;;;;;;;;;4404730;32;20239;-55
2021/11/10 10:33:11;;;;;;;11.77;6.57;;;;;;;;;;4404562;32;20255;-56
2021/11/10 10:35:42;;;;;;;9.93;6.03;;;;;;;;;;4404470;32;20306;-56
2021/11/10 10:38:21;;;;;;;13.40;4.93;;;;;;;;;;4404386;32;20241;-56
2021/11/10 10:40:50;;;;;;;9.40;4.57;;;;;;;;;;4404533;32;20281;-55
2021/11/10 10:43:17;;;;;;;14.87;4.93;;;;;;;;;;4404230;32;20225;-55
2021/11/10 10:45:48;;;;;;;4.67;3.50;;;;;;;;;;4404130;32;20236;-54
2021/11/10 10:48:17;;;;;;;9.13;4.90;;;;;;;;;;4403919;32;20642;-55
2021/11/10 10:50:53;;;;;;;10.70;6.00;;;;;;;;;;4404100;32;20284;-55
2021/11/10 10:54:02;;;;;;;5.23;3.47;;;;;;;;;;4404185;32;20321;-55
2021/11/10 10:56:30;;;;;;;5.27;3.83;;;;;;;;;;4403388;32;20669;-53
2021/11/10 10:58:59;;;;;;;5.43;3.90;;;;;;;;;;4404232;32;20249;-55
2021/11/10 11:01:43;;;;;;;9.00;3.93;;;;;;;;;;4402406;32;20246;-55
2021/11/10 11:04:10;;;;;;;8.93;5.47;;;;;;;;;;4404164;32;20588;-54
2021/11/10 11:06:49;;;;;;;6.80;4.37;;;;;;;;;;4404545;32;20233;-55
2021/11/10 11:09:33;;;;;;;12.30;7.90;;;;;;;;;;4404220;32;20214;-55
2021/11/10 11:12:00;;;;;;;5.77;3.90;;;;;;;;;;4404108;32;20249;-55
2021/11/10 11:17:04;;;;;;;7.27;4.20;;;;;;;;;;4403645;32;20229;-54
2021/11/10 11:19:33;;;;;;;20.97;6.07;;;;;;;;;;4403753;32;20225;-55
2021/11/10 11:21:59;;;;;;;6.97;3.77;;;;;;;;;;4403581;32;20237;-55
2021/11/10 11:24:36;;;;;;;10.37;5.23;;;;;;;;;;4403167;32;20299;-56
2021/11/10 11:27:20;;;;;;;6.17;4.33;;;;;;;;;;4402575;32;20649;-55
2021/11/10 11:29:53;;;;;;;11.80;6.50;;;;;;;;;;4403421;32;20276;-57
2021/11/10 11:32:21;;;;;;;9.60;4.40;;;;;;;;;;4403650;32;20265;-55
2021/11/10 11:34:54;;;;;;;9.83;5.10;;;;;;;;;;4403947;32;20334;-55
2021/11/10 11:37:21;;;;;;;6.83;4.10;;;;;;;;;;4403309;32;20257;-54
2021/11/10 11:39:48;;;;;;;8.20;5.60;;;;;;;;;;4403555;32;20237;-54
2021/11/10 11:42:13;;;;;;;8.87;4.27;;;;;;;;;;4403347;32;20586;-54
2021/11/10 11:44:39;;;;;;;6.33;3.30;;;;;;;;;;4403776;32;20292;-54
2021/11/10 11:47:07;;;;;;;6.70;4.07;;;;;;;;;;4402945;32;20268;-55
2021/11/10 11:49:38;;;;;;;9.97;4.03;;;;;;;;;;4402561;32;20288;-56
2021/11/10 11:52:15;;;;;;;5.83;3.80;;;;;;;;;;4403352;32;20506;-55
2021/11/10 11:54:46;;;;;;;5.23;3.33;;;;;;;;;;4403696;32;20540;-54
2021/11/10 11:57:16;;;;;;;6.77;4.43;;;;;;;;;;4402244;32;20558;-55
2021/11/10 11:59:43;;;;;;;4.73;3.67;;;;;;;;;;4402125;32;20269;-56
2021/11/10 12:02:22;;;;;;;6.27;3.60;;;;;;;;;;4402692;32;20360;-56
2021/11/10 12:04:48;;;;;;;5.80;3.27;;;;;;;;;;4402108;32;20333;-54
2021/11/10 12:07:52;;;;;;;11.17;3.93;;;;;;;;;;4402962;32;20300;-55
2021/11/10 12:10:20;;;;;;;4.83;3.50;;;;;;;;;;4403041;32;20285;-55
2021/11/10 12:12:50;;;;;;;5.87;4.00;;;;;;;;;;4403038;32;20244;-55
2021/11/10 12:15:15;;;;;;;6.83;4.97;;;;;;;;;;4402619;32;20324;-55
2021/11/10 12:18:08;;;;;;;3.83;3.03;;;;;;;;;;4402942;32;20333;-54
2021/11/10 12:20:39;;;;;;;5.83;3.77;;;;;;;;;;4402699;32;20259;-55
2021/11/10 12:23:05;;;;;;;5.10;4.60;;;;;;;;;;4402512;32;20270;-54
2021/11/10 12:25:31;;;;;;;8.43;4.43;;;;;;;;;;4402312;32;20231;-56
2021/11/10 12:27:56;;;;;;;5.30;4.00;;;;;;;;;;4402799;32;20320;-55
2021/11/10 12:30:30;;;;;;;6.67;3.97;;;;;;;;;;4402249;32;20822;-54
2021/11/10 12:33:02;;;;;;;6.80;4.20;;;;;;;;;;4402738;32;20229;-56
2021/11/10 12:35:34;;;;;;;10.60;4.23;;;;;;;;;;4402521;32;20273;-55
2021/11/10 12:38:02;;;;;;;8.53;6.03;;;;;;;;;;4402682;32;20275;-55
2021/11/10 12:40:31;;;;;;;7.17;4.60;;;;;;;;;;4402821;32;20391;-55
2021/11/10 12:43:00;;;;;;;8.40;5.70;;;;;;;;;;4402721;32;20301;-56
2021/11/10 12:45:38;;;;;;;7.90;5.43;;;;;;;;;;4402881;32;21085;-55
2021/11/10 12:48:24;;;;;;;10.23;5.50;;;;;;;;;;4401117;32;20259;-55
2021/11/10 12:50:52;;;;;;;8.77;4.80;;;;;;;;;;4388346;32;20222;-55
2021/11/10 12:53:38;;;;;;;9.83;5.90;;;;;;;;;;4402611;32;20289;-56
2021/11/10 12:56:05;;;;;;;12.47;5.60;;;;;;;;;;4402392;32;20282;-54
2021/11/10 12:58:31;;;;;;;6.93;4.27;;;;;;;;;;4402644;32;20526;-55
2021/11/10 13:00:58;;;;;;;7.97;4.27;;;;;;;;;;4402231;32;20461;-54
2021/11/10 13:03:32;;;;;;;15.13;6.47;;;;;;;;;;4401877;32;20614;-55
2021/11/10 13:06:28;;;;;;;13.47;5.77;;;;;;;;;;4402155;32;20429;-54
2021/11/10 13:11:31;;;;;;;13.90;6.30;;;;;;;;;;4402276;32;20314;-55
2021/11/10 13:14:13;;;;;;;8.13;5.47;;;;;;;;;;4401957;32;20263;-55
2021/11/10 13:16:56;;;;;;;10.20;5.57;;;;;;;;;;4400630;32;20257;-55
2021/11/10 13:19:46;;;;;;;8.20;4.63;;;;;;;;;;4400915;32;20291;-55
2021/11/10 13:22:33;;;;;;;15.30;5.00;;;;;;;;;;4402037;32;20222;-55
2021/11/10 13:25:12;;;;;;;8.60;5.73;;;;;;;;;;4401693;32;20340;-55
2021/11/10 13:27:39;;;;;;;8.70;4.90;;;;;;;;;;4402038;32;20299;-55
2021/11/10 13:30:24;;;;;;;7.10;4.57;;;;;;;;;;4401938;32;20248;-55
2021/11/10 13:32:49;;;;;;;13.63;4.23;;;;;;;;;;4401776;32;20230;-55
2021/11/10 13:35:15;;;;;;;7.30;4.10;;;;;;;;;;4402372;32;20276;-55
2021/11/10 13:37:47;;;;;;;11.33;5.40;;;;;;;;;;4401690;32;20255;-56
2021/11/10 13:40:15;;;;;;;11.70;4.67;;;;;;;;;;4401946;32;20236;-54
2021/11/10 13:42:42;;;;;;;6.07;4.30;;;;;;;;;;4402098;32;20290;-56
2021/11/10 13:45:14;;;;;;;6.67;4.33;;;;;;;;;;4401564;32;20347;-56
2021/11/10 13:47:51;;;;;;;6.03;3.83;;;;;;;;;;4401989;32;20264;-54
2021/11/10 13:50:17;;;;;;;8.00;4.27;;;;;;;;;;4401910;32;20201;-55
2021/11/10 13:52:42;;;;;;;6.63;4.53;;;;;;;;;;4401835;32;20309;-55
2021/11/10 13:55:09;;;;;;;12.27;5.67;;;;;;;;;;4402395;32;20273;-55
2021/11/10 13:57:40;;;;;;;6.13;4.90;;;;;;;;;;4400579;32;20767;-55
2021/11/10 14:00:08;;;;;;;10.10;5.73;;;;;;;;;;4402140;32;20504;-56
2021/11/10 14:02:42;;;;;;;108.97;67.30;;;;;;;;;;4400451;32;20275;-55
2021/11/10 14:05:11;;;;;;;18.97;11.77;;;;;;;;;;4402127;32;20280;-54
2021/11/10 14:07:39;;;;;;;15.30;11.90;;;;;;;;;;4401893;32;20225;-55
2021/11/10 14:10:14;;;;;;;14.60;9.50;;;;;;;;;;4400515;32;20600;-54
2021/11/10 14:12:50;;;;;;;9.13;6.27;;;;;;;;;;4401513;32;20334;-55
2021/11/10 14:15:15;;;;;;;21.33;10.03;;;;;;;;;;4401881;32;20309;-55
2021/11/10 14:18:15;;;;;;;13.97;6.03;;;;;;;;;;4402173;32;20634;-55
2021/11/10 14:20:44;;;;;;;11.23;6.10;;;;;;;;;;4401684;32;20383;-55
2021/11/10 14:23:09;;;;;;;10.60;8.23;;;;;;;;;;4401769;32;20622;-55
2021/11/10 14:25:43;;;;;;;14.50;7.03;;;;;;;;;;4391229;32;20357;-54
2021/11/10 14:28:10;;;;;;;20.83;9.07;;;;;;;;;;4391742;32;20205;-55
2021/11/10 14:30:45;;;;;;;19.03;11.33;;;;;;;;;;4401744;32;20222;-54
2021/11/10 14:33:12;;;;;;;18.47;11.60;;;;;;;;;;4401603;32;20666;-55
2021/11/10 14:35:53;;;;;;;20.00;11.20;;;;;;;;;;4401638;32;20308;-55
2021/11/10 14:38:27;;;;;;;11.83;9.70;;;;;;;;;;4401603;32;20231;-54
2021/11/10 14:41:08;;;;;;;25.43;13.37;;;;;;;;;;4401763;32;20265;-54
2021/11/10 14:43:37;;;;;;;20.77;12.57;;;;;;;;;;4401607;32;20198;-55